Terminal Aerodrome Forecast
Issued by NWS Twin Cities, MN

Home | Current Version | Previous Version | Graphics & Text | Print | Product List | Glossary On
Versions: 1 2 3 4 5 6 7 8 9 10 11 12 13 14 15
000
FTUS43 KMPX 210520
TAFSTC
TAF
KSTC 210520Z 2106/2206 32005KT P6SM SCT040 BKN070
     FM210900 33003KT P6SM SCT070
      TEMPO 2109/2113 4SM BR
     FM211400 33007KT P6SM SCT035
     FM212200 36006KT P6SM SKC
     FM220100 05003KT P6SM SKC=

USA.gov is the U.S. government's official web portal to all federal, state and local government web resources and services.